Marina, California
Current Conditions -  °F | °C
As of 12:54 PM on Wednesday 26 Nov 2014 (Local Time) from KMRY Reporting Station
Clear Clear  
Wind Chill: 73°   Ceiling: Unl
Heat Index: 73°   Visibility: 10mi
Dew Point: 37°   Wind: 0mph
Humidity: 27%   Direction: NA
Pressure: 30.21"   Gusts: NA
Location:  36.68°N, 121.8°W
Report Text: KMRY 262054Z 00000KT 10SM CLR 23/03 A3021 RMK AO2 SLP241 T02280028 56024
Loading
Personal Weather Stations






























Interactive Weather Map New forecast layout! Learn more

10-Day Weather Forecast

Advertisements
Track Severe Weather on mobile